createdAt,value
2023-05-01T06:02:38.676Z,2.10
2023-05-01T06:05:06.168Z,2.10
2023-05-01T06:07:32.949Z,3.60
2023-05-01T06:10:04.234Z,4.00
2023-05-01T06:12:31.942Z,1.40
2023-05-01T06:14:59.570Z,6.40
2023-05-01T06:17:26.446Z,2.20
2023-05-01T06:19:53.821Z,1.60
2023-05-01T06:22:20.719Z,4.90
2023-05-01T06:25:04.233Z,6.20
2023-05-01T06:27:31.218Z,1.60
2023-05-01T06:29:58.140Z,4.10
2023-05-01T06:32:24.953Z,1.20
2023-05-01T06:37:19.354Z,1.80
2023-05-01T06:39:47.832Z,1.40
2023-05-01T06:42:16.259Z,1.70
2023-05-01T06:44:43.427Z,2.40
2023-05-01T06:47:10.355Z,3.10
2023-05-01T06:49:37.175Z,1.50
2023-05-01T06:52:04.055Z,1.80
2023-05-01T06:54:31.042Z,2.00
2023-05-01T06:56:57.760Z,1.70
2023-05-01T06:59:25.488Z,2.60
2023-05-01T07:01:52.451Z,3.30
2023-05-01T07:04:19.072Z,3.30
2023-05-01T07:06:45.923Z,2.10
2023-05-01T07:09:13.974Z,1.50
2023-05-01T07:11:40.816Z,1.70
2023-05-01T07:14:07.524Z,3.90
2023-05-01T07:16:34.536Z,2.90
2023-05-01T07:19:01.460Z,2.60
2023-05-01T07:21:28.222Z,1.80
2023-05-01T07:23:54.857Z,6.00
2023-05-01T07:26:21.694Z,1.40
2023-05-01T07:28:48.337Z,1.20
2023-05-01T07:31:15.659Z,1.80
2023-05-01T07:33:42.400Z,2.30
2023-05-01T07:36:09.405Z,2.70
2023-05-01T07:38:36.096Z,3.10
2023-05-01T07:41:02.890Z,3.30
2023-05-01T07:43:29.546Z,2.40
2023-05-01T07:45:57.664Z,1.40
2023-05-01T07:48:24.709Z,1.10
2023-05-01T07:50:51.731Z,1.50
2023-05-01T07:53:18.693Z,2.50
2023-05-01T07:55:45.344Z,3.90
2023-05-01T07:58:12.033Z,2.90
2023-05-01T08:00:38.663Z,3.80
2023-05-01T08:03:05.381Z,3.10
2023-05-01T08:05:32.296Z,1.70
2023-05-01T08:07:59.253Z,3.40
2023-05-01T08:10:27.352Z,1.40
2023-05-01T08:12:54.007Z,2.40
2023-05-01T08:15:21.832Z,1.10
2023-05-01T08:17:48.698Z,1.40
2023-05-01T08:20:15.524Z,2.20
2023-05-01T08:22:42.241Z,2.90
2023-05-01T08:25:08.973Z,1.00
2023-05-01T08:27:35.637Z,2.50
2023-05-01T08:30:02.280Z,1.40
2023-05-01T08:32:28.997Z,1.70
2023-05-01T08:34:55.690Z,5.20
2023-05-01T08:37:22.362Z,1.50
2023-05-01T08:39:49.207Z,6.80
2023-05-01T08:42:16.239Z,1.20
2023-05-01T08:44:42.973Z,1.20
2023-05-01T08:47:16.135Z,1.00
2023-05-01T08:49:42.966Z,3.40
2023-05-01T08:52:13.344Z,0.80
2023-05-01T08:54:44.922Z,3.40
2023-05-01T08:57:12.156Z,2.70
2023-05-01T08:59:46.505Z,0.70
2023-05-01T09:02:17.150Z,1.80
2023-05-01T09:04:43.757Z,1.90
2023-05-01T09:07:10.522Z,2.80
2023-05-01T09:09:37.486Z,1.90
2023-05-01T09:12:12.359Z,1.20
2023-05-01T09:14:38.996Z,0.80
2023-05-01T09:17:06.058Z,2.70
2023-05-01T09:19:32.728Z,2.00
2023-05-01T09:21:59.450Z,2.20
2023-05-01T09:24:26.449Z,4.60
2023-05-01T09:26:53.114Z,1.30
2023-05-01T09:29:37.427Z,1.00
2023-05-01T09:32:15.132Z,2.20
2023-05-01T09:34:43.676Z,1.50
2023-05-01T09:37:12.477Z,1.20
2023-05-01T09:39:39.388Z,1.20
2023-05-01T09:42:06.464Z,2.80
2023-05-01T09:44:41.355Z,1.00
2023-05-01T09:47:08.327Z,1.90
2023-05-01T09:49:45.123Z,2.70
2023-05-01T09:52:11.952Z,1.60
2023-05-01T09:54:38.621Z,3.70
2023-05-01T09:57:05.644Z,1.90
2023-05-01T09:59:34.400Z,1.10
2023-05-01T10:02:01.794Z,3.60
2023-05-01T10:07:13.942Z,1.40
2023-05-01T10:09:42.250Z,1.30
2023-05-01T10:12:09.111Z,1.00
2023-05-01T10:14:50.444Z,1.20
2023-05-01T10:17:18.103Z,3.20
2023-05-01T10:19:44.869Z,1.70
2023-05-01T10:22:12.419Z,0.80
2023-05-01T10:27:07.964Z,1.70
2023-05-01T10:29:35.002Z,1.70
2023-05-01T10:32:01.692Z,4.00
2023-05-01T10:34:28.609Z,1.20
2023-05-01T10:36:58.876Z,1.00
2023-05-01T10:39:32.801Z,1.80
2023-05-01T10:42:06.844Z,2.70
2023-05-01T10:44:35.117Z,0.80
2023-05-01T10:47:24.757Z,3.40
2023-05-01T10:50:08.766Z,1.40
2023-05-01T10:53:09.884Z,2.30
2023-05-01T10:55:37.205Z,2.20
2023-05-01T10:58:04.475Z,1.90
2023-05-01T11:00:33.177Z,1.70
2023-05-01T11:03:21.852Z,1.00
2023-05-01T11:06:01.166Z,1.40
2023-05-01T11:08:38.256Z,3.20
2023-05-01T11:11:20.177Z,2.30
2023-05-01T11:14:02.718Z,3.20
2023-05-01T11:16:46.515Z,1.40
2023-05-01T11:19:22.848Z,3.30
2023-05-01T11:21:50.519Z,1.50
2023-05-01T11:24:20.064Z,2.60
2023-05-01T11:26:47.413Z,0.90
2023-05-01T11:29:14.051Z,1.40
2023-05-01T11:31:41.533Z,2.40
2023-05-01T11:36:49.063Z,3.90
2023-05-01T11:39:17.372Z,1.90
2023-05-01T11:41:44.168Z,1.00
2023-05-01T11:44:16.308Z,1.10
2023-05-01T11:46:42.990Z,3.20
2023-05-01T11:49:10.745Z,2.20
2023-05-01T11:51:37.402Z,2.00
2023-05-01T11:54:09.539Z,0.90
2023-05-01T11:56:36.948Z,1.80
2023-05-01T11:59:17.828Z,2.20
2023-05-01T12:01:45.486Z,1.40
2023-05-01T12:04:13.274Z,0.90
2023-05-01T12:06:45.789Z,1.50
2023-05-01T12:09:17.388Z,2.70
2023-05-01T12:11:44.090Z,2.10
2023-05-01T12:14:10.975Z,1.20
2023-05-01T12:16:37.936Z,4.00
2023-05-01T12:19:04.726Z,1.20
2023-05-01T12:21:32.128Z,1.50
2023-05-01T12:26:36.237Z,1.40
2023-05-01T12:29:04.561Z,1.50
2023-05-01T12:31:31.638Z,1.80
2023-05-01T12:34:03.385Z,3.60
2023-05-01T12:36:33.407Z,1.30
2023-05-01T12:39:07.013Z,1.30
2023-05-01T12:41:35.734Z,2.30
2023-05-01T12:44:02.919Z,1.30
2023-05-01T12:46:29.800Z,1.30
2023-05-01T12:48:56.947Z,1.00
2023-05-01T12:51:24.195Z,2.90
2023-05-01T12:53:51.789Z,2.10
2023-05-01T12:56:25.788Z,1.00
2023-05-01T12:58:53.739Z,1.30
2023-05-01T13:01:26.045Z,1.40
2023-05-01T13:03:58.050Z,2.40
2023-05-01T13:06:35.100Z,1.20
2023-05-01T13:09:09.665Z,4.90
2023-05-01T13:11:36.388Z,1.60
2023-05-01T13:14:09.741Z,2.90
2023-05-01T13:16:48.840Z,3.90
2023-05-01T13:19:26.639Z,3.10
2023-05-01T13:21:53.249Z,2.30
2023-05-01T13:24:19.915Z,1.40
2023-05-01T13:26:46.529Z,2.70
2023-05-01T13:29:17.515Z,1.70
2023-05-01T13:31:44.847Z,1.60
2023-05-01T13:36:40.239Z,2.30
2023-05-01T13:39:06.917Z,3.50
2023-05-01T13:41:35.339Z,2.20
2023-05-01T13:44:01.988Z,1.80
2023-05-01T13:46:28.746Z,3.00
2023-05-01T13:48:56.496Z,1.80
2023-05-01T13:51:24.906Z,2.00
2023-05-01T13:53:53.505Z,1.80
2023-05-01T13:56:21.910Z,1.90
2023-05-01T13:58:50.378Z,1.80
2023-05-01T14:01:20.717Z,2.10
2023-05-01T14:03:48.703Z,1.40
2023-05-01T14:06:16.863Z,1.60
2023-05-01T14:08:44.554Z,1.80
2023-05-01T14:11:11.836Z,1.20
2023-05-01T14:13:40.716Z,3.30
2023-05-01T14:16:10.495Z,1.00
2023-05-01T14:18:45.008Z,2.10
2023-05-01T14:21:13.297Z,2.50
2023-05-01T14:23:42.105Z,1.30
2023-05-01T14:26:09.656Z,1.20
2023-05-01T14:31:09.714Z,1.20
2023-05-01T14:33:41.650Z,1.40
2023-05-01T14:36:08.325Z,1.30
2023-05-01T14:38:39.228Z,3.10
2023-05-01T14:41:06.798Z,1.80
2023-05-01T14:43:34.494Z,1.70
2023-05-01T14:46:01.256Z,1.40
2023-05-01T14:48:35.185Z,4.70
2023-05-01T14:51:03.076Z,4.00
2023-05-01T14:53:32.978Z,2.30
2023-05-01T14:55:59.712Z,1.50
2023-05-01T14:58:26.337Z,1.40
2023-05-01T15:00:52.981Z,1.60
2023-05-01T15:03:19.677Z,1.90
2023-05-01T15:05:46.918Z,3.80
2023-05-01T15:08:13.736Z,1.30
2023-05-01T15:10:40.443Z,1.80
2023-05-01T15:13:07.127Z,1.60
2023-05-01T15:15:33.763Z,2.80
2023-05-01T15:18:00.484Z,5.30
2023-05-01T15:20:27.802Z,5.10
2023-05-01T15:22:54.716Z,1.50
2023-05-01T15:25:21.550Z,1.10
2023-05-01T15:27:50.268Z,2.60
2023-05-01T15:30:16.928Z,2.10
2023-05-01T15:32:44.025Z,3.30
2023-05-01T15:35:11.076Z,1.60
2023-05-01T15:37:37.753Z,2.80
2023-05-01T15:40:05.677Z,1.80
2023-05-01T15:45:00.149Z,1.40
2023-05-01T15:47:27.437Z,2.90
2023-05-01T15:49:54.061Z,1.20
2023-05-01T15:52:20.821Z,3.80
2023-05-01T15:54:47.526Z,1.40
2023-05-01T15:57:14.860Z,3.40
2023-05-01T15:59:41.761Z,3.00
2023-05-01T16:02:08.846Z,2.20
2023-05-01T16:04:35.777Z,2.10
2023-05-01T16:07:02.971Z,1.70
2023-05-01T16:09:31.077Z,3.00
2023-05-01T16:11:59.532Z,1.30
2023-05-01T16:14:26.649Z,1.60
2023-05-01T16:16:53.289Z,6.90
2023-05-01T16:19:20.180Z,4.50
2023-05-01T16:21:46.966Z,1.70
2023-05-01T16:24:13.752Z,3.10
2023-05-01T16:26:41.273Z,2.00
2023-05-01T16:31:38.949Z,3.10
2023-05-01T16:34:07.216Z,2.30
2023-05-01T16:36:35.664Z,3.60
2023-05-01T16:39:02.486Z,5.60
2023-05-01T16:41:29.102Z,4.50
2023-05-01T16:43:59.439Z,5.70
2023-05-01T16:46:26.265Z,2.80
2023-05-01T16:48:53.239Z,3.20
2023-05-01T16:51:20.144Z,2.80
2023-05-01T16:53:46.864Z,3.60
2023-05-01T16:56:13.580Z,4.20
2023-05-01T16:58:40.269Z,2.60
2023-05-01T17:01:07.056Z,4.70
2023-05-01T17:03:35.037Z,3.80
2023-05-01T17:06:01.708Z,2.50
2023-05-01T17:08:28.435Z,5.10
2023-05-01T17:10:55.121Z,6.20
2023-05-01T17:13:21.808Z,4.40
2023-05-01T17:15:48.625Z,6.50
2023-05-01T17:18:15.371Z,5.70
2023-05-01T17:20:42.017Z,3.00
2023-05-01T17:23:09.937Z,4.80
2023-05-01T17:25:36.679Z,2.70
2023-05-01T17:28:03.364Z,4.20
2023-05-01T17:30:29.971Z,4.90
2023-05-01T17:32:57.094Z,11.20
2023-05-01T17:35:24.154Z,4.40
2023-05-01T17:37:50.765Z,2.90
2023-05-01T17:40:17.968Z,7.10
2023-05-01T17:42:44.592Z,4.20
2023-05-01T17:45:11.543Z,6.90
2023-05-01T17:47:42.789Z,3.50
2023-05-01T17:50:10.961Z,6.30
2023-05-01T17:52:38.720Z,5.00
2023-05-01T17:55:06.305Z,7.50
2023-05-01T18:00:00.698Z,11.40
2023-05-01T18:02:27.720Z,7.10
2023-05-01T18:04:55.296Z,8.10
2023-05-01T18:09:48.905Z,4.90
2023-05-01T18:12:15.606Z,4.70
2023-05-01T18:14:42.326Z,11.40
2023-05-01T18:17:09.237Z,7.10
2023-05-01T18:19:36.054Z,8.70
2023-05-01T18:22:04.271Z,6.80
2023-05-01T18:24:31.212Z,8.60
2023-05-01T18:26:59.592Z,5.20
2023-05-01T18:29:27.139Z,6.70
2023-05-01T18:34:22.019Z,7.50
2023-05-01T18:36:52.164Z,7.20
2023-05-01T18:39:21.877Z,6.50
2023-05-01T18:41:49.264Z,8.00
2023-05-01T18:44:19.201Z,7.30
2023-05-01T18:46:45.968Z,19.80
2023-05-01T18:49:12.698Z,10.60
2023-05-01T18:51:39.365Z,12.40
2023-05-01T18:54:07.857Z,9.80
2023-05-01T18:56:34.603Z,11.20
2023-05-01T18:59:01.256Z,11.00
2023-05-01T19:01:28.321Z,7.40
2023-05-01T19:03:58.985Z,7.70
2023-05-01T19:06:26.645Z,7.70
2023-05-01T19:08:53.638Z,4.10
2023-05-01T19:11:21.509Z,5.20
2023-05-01T19:13:48.703Z,7.00
2023-05-01T19:16:15.640Z,5.80
2023-05-01T19:18:42.293Z,9.00
2023-05-01T19:21:09.889Z,8.50
2023-05-01T19:26:05.046Z,8.10
2023-05-01T19:28:32.069Z,9.10
2023-05-01T19:30:58.790Z,8.40
2023-05-01T19:33:25.494Z,6.10
2023-05-01T19:35:52.120Z,7.30
2023-05-01T19:38:18.827Z,6.30
2023-05-01T19:40:45.696Z,8.00
2023-05-01T19:43:13.485Z,5.10
2023-05-01T19:45:40.298Z,7.20
2023-05-01T19:48:07.309Z,6.70
2023-05-01T19:50:34.498Z,9.30
2023-05-01T19:53:01.553Z,6.40
2023-05-01T19:55:28.600Z,13.30
2023-05-01T19:57:55.870Z,10.40
2023-05-01T20:00:22.621Z,10.90
2023-05-01T20:02:49.677Z,8.30
2023-05-01T20:05:16.344Z,9.80
2023-05-01T20:07:43.064Z,7.80
2023-05-01T20:10:09.836Z,8.10
2023-05-01T20:12:37.053Z,7.70
2023-05-01T20:15:04.536Z,11.00
2023-05-01T20:19:58.116Z,14.40
2023-05-01T20:22:25.054Z,13.80
2023-05-01T20:24:51.652Z,17.70
2023-05-01T20:27:18.272Z,17.30
2023-05-01T20:29:45.004Z,22.50
2023-05-01T20:32:11.765Z,19.80
2023-05-01T20:34:38.929Z,29.20
2023-05-01T20:37:06.907Z,30.50
2023-05-01T20:39:33.658Z,31.00
2023-05-01T20:42:00.938Z,25.80
2023-05-01T20:44:27.762Z,21.50
2023-05-01T20:46:54.512Z,21.40
2023-05-01T20:49:21.536Z,18.00
2023-05-01T20:51:48.294Z,22.00
2023-05-01T20:54:15.050Z,26.90
2023-05-01T20:56:41.813Z,30.20
2023-05-01T20:59:08.674Z,22.80
2023-05-01T21:01:35.420Z,26.30
2023-05-01T21:04:03.769Z,26.60
2023-05-01T21:06:32.144Z,26.80
2023-05-01T21:08:59.975Z,20.10
2023-05-01T21:11:26.772Z,23.40
2023-05-01T21:13:53.452Z,23.00
2023-05-01T21:16:20.531Z,19.90
2023-05-01T21:18:47.670Z,18.40
2023-05-01T21:21:15.818Z,24.50
2023-05-01T21:23:46.893Z,23.40
2023-05-01T21:26:14.232Z,27.90
2023-05-01T21:28:41.030Z,26.40
2023-05-01T21:31:08.890Z,24.80
2023-05-01T21:33:36.389Z,20.30
2023-05-01T21:36:03.775Z,23.60
2023-05-01T21:38:31.351Z,25.80
2023-05-01T21:40:58.061Z,23.50
2023-05-01T21:43:24.664Z,22.90
2023-05-01T21:45:51.273Z,18.30
2023-05-01T21:48:17.987Z,17.80
2023-05-01T21:50:47.958Z,21.90
2023-05-01T21:53:14.557Z,19.70
2023-05-01T21:55:44.842Z,21.90
2023-05-01T21:58:12.959Z,17.90
2023-05-01T22:00:41.749Z,12.70
2023-05-01T22:03:08.967Z,19.40
2023-05-01T22:05:36.447Z,20.00
2023-05-01T22:08:03.076Z,20.10
2023-05-01T22:10:29.765Z,16.10
2023-05-01T22:12:56.565Z,18.60
2023-05-01T22:15:23.303Z,19.60
2023-05-01T22:17:50.026Z,22.10
2023-05-01T22:20:16.903Z,24.50
2023-05-01T22:22:43.669Z,14.60
2023-05-01T22:25:10.623Z,17.90
2023-05-01T22:27:37.513Z,18.50
2023-05-01T22:30:05.295Z,19.10
2023-05-01T22:32:32.086Z,19.20
2023-05-01T22:34:58.780Z,17.30
2023-05-01T22:37:25.771Z,19.10
2023-05-01T22:39:53.356Z,17.20
2023-05-01T22:44:47.060Z,17.30
2023-05-01T22:47:13.746Z,16.10
2023-05-01T22:49:40.372Z,13.90
2023-05-01T22:52:07.139Z,18.90
2023-05-01T22:54:33.814Z,16.40
2023-05-01T22:57:00.518Z,15.60
2023-05-01T22:59:27.146Z,16.60
2023-05-01T23:01:55.031Z,12.40
2023-05-01T23:04:21.987Z,15.40
2023-05-01T23:06:48.854Z,18.20
2023-05-01T23:09:15.754Z,17.10
2023-05-01T23:11:42.411Z,20.00
2023-05-01T23:14:09.100Z,19.70
2023-05-01T23:16:42.219Z,20.50
2023-05-01T23:19:18.858Z,19.90
2023-05-01T23:21:45.771Z,15.90
2023-05-01T23:24:17.260Z,19.40
2023-05-01T23:26:44.345Z,19.60
2023-05-01T23:29:12.380Z,18.00
2023-05-01T23:31:43.626Z,23.20
2023-05-01T23:34:10.600Z,17.90
2023-05-01T23:36:37.203Z,22.50
2023-05-01T23:39:03.931Z,20.50
2023-05-01T23:41:30.736Z,24.20
2023-05-01T23:43:57.439Z,19.50
2023-05-01T23:46:24.165Z,19.10
2023-05-01T23:48:50.803Z,21.80
2023-05-01T23:51:17.565Z,19.70
2023-05-01T23:53:44.199Z,21.30
2023-05-01T23:56:11.003Z,19.40
2023-05-01T23:58:37.842Z,22.50
